sensor_id;sensor_type;location;lat;lon;timestamp;pressure;altitude;pressure_sealevel;temperature;humidity
77725;BME280;66892;53.236;6.550;2023-06-01T00:01:32;102646.81;;;11.23;80.54
77725;BME280;66892;53.236;6.550;2023-06-01T00:03:59;102633.44;;;11.17;80.90
77725;BME280;66892;53.236;6.550;2023-06-01T00:06:25;102640.47;;;11.17;81.07
77725;BME280;66892;53.236;6.550;2023-06-01T00:08:54;102638.84;;;11.23;81.05
77725;BME280;66892;53.236;6.550;2023-06-01T00:11:20;102637.06;;;11.22;81.88
77725;BME280;66892;53.236;6.550;2023-06-01T00:13:47;102637.00;;;11.21;82.12
77725;BME280;66892;53.236;6.550;2023-06-01T00:16:16;102640.47;;;11.18;81.98
77725;BME280;66892;53.236;6.550;2023-06-01T00:18:43;102641.25;;;11.13;82.48
77725;BME280;66892;53.236;6.550;2023-06-01T00:21:09;102638.66;;;11.16;81.27
77725;BME280;66892;53.236;6.550;2023-06-01T00:23:35;102646.63;;;11.16;80.97
77725;BME280;66892;53.236;6.550;2023-06-01T00:26:02;102638.47;;;11.06;80.85
77725;BME280;66892;53.236;6.550;2023-06-01T00:28:28;102628.78;;;11.08;81.60
77725;BME280;66892;53.236;6.550;2023-06-01T00:30:54;102627.03;;;11.09;81.69
77725;BME280;66892;53.236;6.550;2023-06-01T00:33:21;102629.56;;;11.03;81.85
77725;BME280;66892;53.236;6.550;2023-06-01T00:35:48;102634.78;;;11.00;81.58
77725;BME280;66892;53.236;6.550;2023-06-01T00:38:14;102625.03;;;10.99;82.30
77725;BME280;66892;53.236;6.550;2023-06-01T00:40:40;102619.78;;;11.00;82.23
77725;BME280;66892;53.236;6.550;2023-06-01T00:43:06;102618.13;;;11.05;82.15
77725;BME280;66892;53.236;6.550;2023-06-01T00:45:32;102612.97;;;11.10;81.78
77725;BME280;66892;53.236;6.550;2023-06-01T00:47:58;102627.03;;;11.07;81.88
77725;BME280;66892;53.236;6.550;2023-06-01T00:50:26;102618.19;;;11.08;81.94
77725;BME280;66892;53.236;6.550;2023-06-01T00:52:53;102617.31;;;11.08;82.18
77725;BME280;66892;53.236;6.550;2023-06-01T00:55:20;102612.78;;;11.02;81.86
77725;BME280;66892;53.236;6.550;2023-06-01T00:57:46;102618.97;;;11.03;81.11
77725;BME280;66892;53.236;6.550;2023-06-01T01:00:14;102611.94;;;11.05;80.83
77725;BME280;66892;53.236;6.550;2023-06-01T01:02:41;102607.59;;;11.07;80.73
77725;BME280;66892;53.236;6.550;2023-06-01T01:05:10;102614.59;;;11.05;81.21
77725;BME280;66892;53.236;6.550;2023-06-01T01:07:44;102616.19;;;10.97;81.83
77725;BME280;66892;53.236;6.550;2023-06-01T01:10:24;102609.97;;;10.96;82.27
77725;BME280;66892;53.236;6.550;2023-06-01T01:12:58;102617.88;;;10.95;82.19
77725;BME280;66892;53.236;6.550;2023-06-01T01:15:32;102614.38;;;10.96;82.38
77725;BME280;66892;53.236;6.550;2023-06-01T01:18:04;102610.88;;;10.97;81.93
77725;BME280;66892;53.236;6.550;2023-06-01T01:20:35;102611.88;;;11.02;82.19
77725;BME280;66892;53.236;6.550;2023-06-01T01:23:14;102617.88;;;10.95;82.00
77725;BME280;66892;53.236;6.550;2023-06-01T01:26:02;102616.94;;;10.91;81.14
77725;BME280;66892;53.236;6.550;2023-06-01T01:28:40;102609.00;;;10.93;81.77
77725;BME280;66892;53.236;6.550;2023-06-01T01:31:09;102609.84;;;10.90;81.63
77725;BME280;66892;53.236;6.550;2023-06-01T01:33:36;102612.50;;;10.92;82.07
77725;BME280;66892;53.236;6.550;2023-06-01T01:36:04;102614.25;;;10.90;81.59
77725;BME280;66892;53.236;6.550;2023-06-01T01:38:33;102601.06;;;10.91;81.67
77725;BME280;66892;53.236;6.550;2023-06-01T01:40:59;102597.53;;;10.92;81.57
77725;BME280;66892;53.236;6.550;2023-06-01T01:43:26;102604.63;;;10.93;80.84
77725;BME280;66892;53.236;6.550;2023-06-01T01:45:56;102600.16;;;10.91;80.78
77725;BME280;66892;53.236;6.550;2023-06-01T01:48:28;102604.56;;;10.92;81.07
77725;BME280;66892;53.236;6.550;2023-06-01T01:51:00;102595.72;;;10.90;81.14
77725;BME280;66892;53.236;6.550;2023-06-01T01:53:29;102599.22;;;10.89;81.11
77725;BME280;66892;53.236;6.550;2023-06-01T01:55:56;102593.97;;;10.92;81.28
77725;BME280;66892;53.236;6.550;2023-06-01T01:58:23;102601.84;;;10.89;81.05
77725;BME280;66892;53.236;6.550;2023-06-01T02:00:53;102590.47;;;10.91;81.34
77725;BME280;66892;53.236;6.550;2023-06-01T02:03:20;102591.34;;;10.92;81.17
77725;BME280;66892;53.236;6.550;2023-06-01T02:05:46;102590.47;;;10.91;81.31
77725;BME280;66892;53.236;6.550;2023-06-01T02:08:12;102589.53;;;10.89;81.50
77725;BME280;66892;53.236;6.550;2023-06-01T02:10:38;102593.91;;;10.89;81.28
77725;BME280;66892;53.236;6.550;2023-06-01T02:13:06;102595.78;;;10.93;81.32
77725;BME280;66892;53.236;6.550;2023-06-01T02:15:32;102588.66;;;10.90;81.89
77725;BME280;66892;53.236;6.550;2023-06-01T02:18:00;102587.00;;;10.94;81.74
77725;BME280;66892;53.236;6.550;2023-06-01T02:20:26;102586.16;;;10.96;82.42
77725;BME280;66892;53.236;6.550;2023-06-01T02:22:52;102587.00;;;10.95;82.37
77725;BME280;66892;53.236;6.550;2023-06-01T02:25:18;102586.16;;;10.96;82.50
77725;BME280;66892;53.236;6.550;2023-06-01T02:27:45;102585.38;;;11.00;81.84
77725;BME280;66892;53.236;6.550;2023-06-01T02:30:11;102581.00;;;11.02;81.68
77725;BME280;66892;53.236;6.550;2023-06-01T02:32:38;102575.75;;;11.04;81.03
77725;BME280;66892;53.236;6.550;2023-06-01T02:35:06;102572.16;;;11.00;80.96
77725;BME280;66892;53.236;6.550;2023-06-01T02:37:32;102564.88;;;10.92;81.73
77725;BME280;66892;53.236;6.550;2023-06-01T02:39:58;102563.19;;;10.94;81.86
77725;BME280;66892;53.236;6.550;2023-06-01T02:42:24;102564.03;;;10.93;81.26
77725;BME280;66892;53.236;6.550;2023-06-01T02:44:50;102567.59;;;10.95;81.41
77725;BME280;66892;53.236;6.550;2023-06-01T02:47:16;102564.94;;;10.95;81.42
77725;BME280;66892;53.236;6.550;2023-06-01T02:49:42;102564.13;;;10.97;81.52
77725;BME280;66892;53.236;6.550;2023-06-01T02:52:10;102561.56;;;11.02;81.18
77725;BME280;66892;53.236;6.550;2023-06-01T02:54:36;102553.63;;;11.00;81.16
77725;BME280;66892;53.236;6.550;2023-06-01T02:57:02;102563.25;;;10.97;81.94
77725;BME280;66892;53.236;6.550;2023-06-01T02:59:28;102563.38;;;11.03;81.27
77725;BME280;66892;53.236;6.550;2023-06-01T03:01:54;102562.41;;;10.99;81.60
77725;BME280;66892;53.236;6.550;2023-06-01T03:04:20;102558.94;;;11.02;81.62
77725;BME280;66892;53.236;6.550;2023-06-01T03:06:46;102551.94;;;11.05;81.57
77725;BME280;66892;53.236;6.550;2023-06-01T03:09:18;102551.88;;;11.02;81.43
77725;BME280;66892;53.236;6.550;2023-06-01T03:11:44;102552.72;;;11.00;81.73
77725;BME280;66892;53.236;6.550;2023-06-01T03:14:10;102555.44;;;11.03;81.68
77725;BME280;66892;53.236;6.550;2023-06-01T03:16:36;102543.94;;;11.01;82.49
77725;BME280;66892;53.236;6.550;2023-06-01T03:19:02;102543.81;;;10.96;82.73
77725;BME280;66892;53.236;6.550;2023-06-01T03:21:28;102545.56;;;10.96;82.91
77725;BME280;66892;53.236;6.550;2023-06-01T03:23:54;102542.13;;;11.00;82.71
77725;BME280;66892;53.236;6.550;2023-06-01T03:26:22;102542.06;;;10.97;83.27
77725;BME280;66892;53.236;6.550;2023-06-01T03:28:48;102551.75;;;10.96;83.41
77725;BME280;66892;53.236;6.550;2023-06-01T03:31:14;102546.41;;;10.95;83.22
77725;BME280;66892;53.236;6.550;2023-06-01T03:33:41;102543.88;;;10.98;83.25
77725;BME280;66892;53.236;6.550;2023-06-01T03:36:07;102535.16;;;11.05;83.54
77725;BME280;66892;53.236;6.550;2023-06-01T03:38:33;102544.00;;;11.04;83.54
77725;BME280;66892;53.236;6.550;2023-06-01T03:41:00;102543.09;;;11.03;83.50
77725;BME280;66892;53.236;6.550;2023-06-01T03:43:28;102538.69;;;11.04;83.50
77725;BME280;66892;53.236;6.550;2023-06-01T03:45:55;102533.34;;;11.02;83.78
77725;BME280;66892;53.236;6.550;2023-06-01T03:48:21;102526.25;;;11.00;83.60
77725;BME280;66892;53.236;6.550;2023-06-01T03:50:47;102542.13;;;11.00;83.81
77725;BME280;66892;53.236;6.550;2023-06-01T03:53:13;102536.91;;;11.03;83.84
77725;BME280;66892;53.236;6.550;2023-06-01T03:55:40;102527.22;;;11.03;84.08
77725;BME280;66892;53.236;6.550;2023-06-01T03:58:06;102529.91;;;11.06;84.01
77725;BME280;66892;53.236;6.550;2023-06-01T04:00:34;102540.53;;;11.08;83.56
77725;BME280;66892;53.236;6.550;2023-06-01T04:03:02;102541.41;;;11.07;83.52
77725;BME280;66892;53.236;6.550;2023-06-01T04:05:32;102534.31;;;11.06;84.07
77725;BME280;66892;53.236;6.550;2023-06-01T04:07:59;102539.69;;;11.09;83.86
77725;BME280;66892;53.236;6.550;2023-06-01T04:10:25;102541.41;;;11.07;83.92
77725;BME280;66892;53.236;6.550;2023-06-01T04:12:51;102543.09;;;11.05;83.48
77725;BME280;66892;53.236;6.550;2023-06-01T04:15:18;102549.22;;;11.01;83.99
77725;BME280;66892;53.236;6.550;2023-06-01T04:17:46;102536.97;;;11.06;84.05
77725;BME280;66892;53.236;6.550;2023-06-01T04:20:13;102544.00;;;11.05;84.03
77725;BME280;66892;53.236;6.550;2023-06-01T04:22:41;102541.44;;;11.08;83.73
77725;BME280;66892;53.236;6.550;2023-06-01T04:25:10;102552.78;;;11.04;83.70
77725;BME280;66892;53.236;6.550;2023-06-01T04:27:43;102538.47;;;10.95;84.15
77725;BME280;66892;53.236;6.550;2023-06-01T04:30:11;102544.72;;;10.97;84.15
77725;BME280;66892;53.236;6.550;2023-06-01T04:32:37;102542.97;;;10.97;84.42
77725;BME280;66892;53.236;6.550;2023-06-01T04:35:06;102540.25;;;10.94;84.72
77725;BME280;66892;53.236;6.550;2023-06-01T04:37:33;102542.06;;;10.97;84.89
77725;BME280;66892;53.236;6.550;2023-06-01T04:39:59;102527.16;;;11.00;85.20
77725;BME280;66892;53.236;6.550;2023-06-01T04:42:25;102536.91;;;11.03;84.98
77725;BME280;66892;53.236;6.550;2023-06-01T04:44:52;102527.28;;;11.08;85.24
77725;BME280;66892;53.236;6.550;2023-06-01T04:47:19;102527.28;;;11.06;85.23
77725;BME280;66892;53.236;6.550;2023-06-01T04:49:47;102531.66;;;11.06;85.33
77725;BME280;66892;53.236;6.550;2023-06-01T04:52:15;102538.47;;;10.95;85.81
77725;BME280;66892;53.236;6.550;2023-06-01T04:54:41;102528.84;;;10.97;86.56
77725;BME280;66892;53.236;6.550;2023-06-01T04:57:07;102529.72;;;10.97;86.32
77725;BME280;66892;53.236;6.550;2023-06-01T04:59:33;102523.63;;;11.01;86.34
77725;BME280;66892;53.236;6.550;2023-06-01T05:01:59;102529.06;;;11.07;86.17
77725;BME280;66892;53.236;6.550;2023-06-01T05:04:25;102515.84;;;11.07;86.57
77725;BME280;66892;53.236;6.550;2023-06-01T05:06:52;102521.91;;;11.03;86.81
77725;BME280;66892;53.236;6.550;2023-06-01T05:09:19;102531.53;;;11.00;88.11
77725;BME280;66892;53.236;6.550;2023-06-01T05:11:45;102534.13;;;10.98;89.22
77725;BME280;66892;53.236;6.550;2023-06-01T05:14:11;102540.25;;;10.96;90.17
77725;BME280;66892;53.236;6.550;2023-06-01T05:16:37;102533.94;;;10.89;90.17
77725;BME280;66892;53.236;6.550;2023-06-01T05:19:03;102537.47;;;10.88;90.35
77725;BME280;66892;53.236;6.550;2023-06-01T05:21:29;102523.28;;;10.86;90.90
77725;BME280;66892;53.236;6.550;2023-06-01T05:23:57;102517.09;;;10.86;90.90
77725;BME280;66892;53.236;6.550;2023-06-01T05:26:24;102513.66;;;10.88;90.65
77725;BME280;66892;53.236;6.550;2023-06-01T05:28:51;102519.75;;;10.86;91.00
77725;BME280;66892;53.236;6.550;2023-06-01T05:31:17;102516.25;;;10.87;90.95
77725;BME280;66892;53.236;6.550;2023-06-01T05:33:43;102521.59;;;10.88;91.24
77725;BME280;66892;53.236;6.550;2023-06-01T05:36:09;102519.94;;;10.93;90.76
77725;BME280;66892;53.236;6.550;2023-06-01T05:38:36;102526.94;;;10.91;90.83
77725;BME280;66892;53.236;6.550;2023-06-01T05:41:02;102526.06;;;10.91;91.15
77725;BME280;66892;53.236;6.550;2023-06-01T05:43:30;102524.31;;;10.93;91.72
77725;BME280;66892;53.236;6.550;2023-06-01T05:45:56;102519.94;;;10.95;91.78
77725;BME280;66892;53.236;6.550;2023-06-01T05:48:22;102526.19;;;10.98;91.72
77725;BME280;66892;53.236;6.550;2023-06-01T05:50:48;102516.63;;;11.03;91.79
77725;BME280;66892;53.236;6.550;2023-06-01T05:53:14;102521.03;;;11.04;91.58
77725;BME280;66892;53.236;6.550;2023-06-01T05:55:40;102520.25;;;11.08;91.54
77725;BME280;66892;53.236;6.550;2023-06-01T05:58:06;102525.66;;;11.13;90.75
77725;BME280;66892;53.236;6.550;2023-06-01T06:00:33;102513.25;;;11.12;90.90
77725;BME280;66892;53.236;6.550;2023-06-01T06:03:02;102515.13;;;11.16;91.28
77725;BME280;66892;53.236;6.550;2023-06-01T06:05:30;102519.59;;;11.19;90.43
77725;BME280;66892;53.236;6.550;2023-06-01T06:07:56;102513.44;;;11.20;90.93
77725;BME280;66892;53.236;6.550;2023-06-01T06:10:22;102521.44;;;11.23;90.44
77725;BME280;66892;53.236;6.550;2023-06-01T06:12:48;102519.75;;;11.26;89.58
77725;BME280;66892;53.236;6.550;2023-06-01T06:15:14;102512.66;;;11.24;89.15
77725;BME280;66892;53.236;6.550;2023-06-01T06:17:42;102512.78;;;11.30;89.62
77725;BME280;66892;53.236;6.550;2023-06-01T06:20:09;102516.38;;;11.35;88.28
77725;BME280;66892;53.236;6.550;2023-06-01T06:22:36;102514.56;;;11.32;88.72
77725;BME280;66892;53.236;6.550;2023-06-01T06:25:03;102504.66;;;11.22;89.89
77725;BME280;66892;53.236;6.550;2023-06-01T06:27:29;102518.72;;;11.20;90.32
77725;BME280;66892;53.236;6.550;2023-06-01T06:29:55;102515.19;;;11.21;90.93
77725;BME280;66892;53.236;6.550;2023-06-01T06:32:21;102509.03;;;11.20;90.95
77725;BME280;66892;53.236;6.550;2023-06-01T06:34:49;102512.59;;;11.22;91.01
77725;BME280;66892;53.236;6.550;2023-06-01T06:37:15;102515.34;;;11.27;91.05
77725;BME280;66892;53.236;6.550;2023-06-01T06:39:43;102516.31;;;11.32;90.31
77725;BME280;66892;53.236;6.550;2023-06-01T06:42:10;102512.00;;;11.35;90.61
77725;BME280;66892;53.236;6.550;2023-06-01T06:44:36;102519.09;;;11.36;90.53
77725;BME280;66892;53.236;6.550;2023-06-01T06:47:02;102516.38;;;11.33;91.08
77725;BME280;66892;53.236;6.550;2023-06-01T06:49:28;102519.75;;;11.28;91.31
77725;BME280;66892;53.236;6.550;2023-06-01T06:51:55;102525.97;;;11.28;92.11
77725;BME280;66892;53.236;6.550;2023-06-01T06:54:22;102517.97;;;11.25;92.20
77725;BME280;66892;53.236;6.550;2023-06-01T06:56:48;102515.38;;;11.28;92.14
77725;BME280;66892;53.236;6.550;2023-06-01T06:59:14;102517.22;;;11.32;92.56
77725;BME280;66892;53.236;6.550;2023-06-01T07:01:40;102518.97;;;11.32;91.66
77725;BME280;66892;53.236;6.550;2023-06-01T07:04:06;102524.34;;;11.35;92.09
77725;BME280;66892;53.236;6.550;2023-06-01T07:06:33;102522.59;;;11.37;92.07
77725;BME280;66892;53.236;6.550;2023-06-01T07:09:01;102528.72;;;11.33;92.46
77725;BME280;66892;53.236;6.550;2023-06-01T07:11:27;102527.72;;;11.28;93.08
77725;BME280;66892;53.236;6.550;2023-06-01T07:13:53;102523.38;;;11.30;92.58
77725;BME280;66892;53.236;6.550;2023-06-01T07:16:19;102526.06;;;11.33;92.61
77725;BME280;66892;53.236;6.550;2023-06-01T07:18:45;102523.38;;;11.31;92.12
77725;BME280;66892;53.236;6.550;2023-06-01T07:21:11;102524.44;;;11.39;91.09
77725;BME280;66892;53.236;6.550;2023-06-01T07:23:37;102526.38;;;11.48;90.74
77725;BME280;66892;53.236;6.550;2023-06-01T07:26:04;102524.69;;;11.53;90.34
77725;BME280;66892;53.236;6.550;2023-06-01T07:28:30;102517.63;;;11.53;89.90
77725;BME280;66892;53.236;6.550;2023-06-01T07:30:58;102520.22;;;11.49;90.63
77725;BME280;66892;53.236;6.550;2023-06-01T07:33:24;102521.09;;;11.49;89.98
77725;BME280;66892;53.236;6.550;2023-06-01T07:35:51;102522.09;;;11.54;89.48
77725;BME280;66892;53.236;6.550;2023-06-01T07:38:18;102531.94;;;11.61;89.96
77725;BME280;66892;53.236;6.550;2023-06-01T07:40:45;102522.31;;;11.67;89.09
77725;BME280;66892;53.236;6.550;2023-06-01T07:43:13;102517.16;;;11.71;89.58
77725;BME280;66892;53.236;6.550;2023-06-01T07:45:39;102522.56;;;11.77;90.05
77725;BME280;66892;53.236;6.550;2023-06-01T07:48:05;102522.78;;;11.89;89.84
77725;BME280;66892;53.236;6.550;2023-06-01T07:50:31;102516.72;;;11.98;88.60
77725;BME280;66892;53.236;6.550;2023-06-01T07:52:57;102522.94;;;11.97;87.31
77725;BME280;66892;53.236;6.550;2023-06-01T07:55:23;102517.81;;;12.09;88.05
77725;BME280;66892;53.236;6.550;2023-06-01T07:57:49;102520.56;;;12.13;88.15
77725;BME280;66892;53.236;6.550;2023-06-01T08:00:18;102526.03;;;12.24;88.22
77725;BME280;66892;53.236;6.550;2023-06-01T08:02:44;102528.78;;;12.29;88.31
77725;BME280;66892;53.236;6.550;2023-06-01T08:05:10;102526.13;;;12.30;88.11
77725;BME280;66892;53.236;6.550;2023-06-01T08:07:37;102512.91;;;12.33;87.90
77725;BME280;66892;53.236;6.550;2023-06-01T08:10:04;102518.16;;;12.30;87.36
77725;BME280;66892;53.236;6.550;2023-06-01T08:12:31;102520.66;;;12.20;86.93
77725;BME280;66892;53.236;6.550;2023-06-01T08:14:57;102517.72;;;12.04;87.40
77725;BME280;66892;53.236;6.550;2023-06-01T08:17:25;102509.56;;;11.92;88.52
77725;BME280;66892;53.236;6.550;2023-06-01T08:19:51;102506.81;;;11.86;88.83
77725;BME280;66892;53.236;6.550;2023-06-01T08:22:19;102513.72;;;11.77;88.61
77725;BME280;66892;53.236;6.550;2023-06-01T08:24:46;102504.53;;;11.61;88.82
77725;BME280;66892;53.236;6.550;2023-06-01T08:27:16;102511.53;;;11.57;89.63
77725;BME280;66892;53.236;6.550;2023-06-01T08:29:44;102510.75;;;11.61;90.63
77725;BME280;66892;53.236;6.550;2023-06-01T08:32:11;102517.84;;;11.64;89.94
77725;BME280;66892;53.236;6.550;2023-06-01T08:34:39;102515.41;;;11.72;90.59
77725;BME280;66892;53.236;6.550;2023-06-01T08:37:05;102512.81;;;11.75;90.26
77725;BME280;66892;53.236;6.550;2023-06-01T08:39:31;102506.53;;;11.71;90.35
77725;BME280;66892;53.236;6.550;2023-06-01T08:42:06;102509.31;;;11.77;89.73
77725;BME280;66892;53.236;6.550;2023-06-01T08:44:35;102519.16;;;11.84;88.00
77725;BME280;66892;53.236;6.550;2023-06-01T08:47:02;102521.06;;;11.93;86.02
77725;BME280;66892;53.236;6.550;2023-06-01T08:49:30;102514.13;;;11.99;84.78
77725;BME280;66892;53.236;6.550;2023-06-01T08:52:00;102515.25;;;12.13;84.56
77725;BME280;66892;53.236;6.550;2023-06-01T08:54:26;102521.63;;;12.23;83.30
77725;BME280;66892;53.236;6.550;2023-06-01T08:56:53;102509.44;;;12.36;81.86
77725;BME280;66892;53.236;6.550;2023-06-01T08:59:19;102507.66;;;12.35;82.00
77725;BME280;66892;53.236;6.550;2023-06-01T09:01:46;102519.34;;;12.47;79.59
77725;BME280;66892;53.236;6.550;2023-06-01T09:04:13;102511.28;;;12.41;79.11
77725;BME280;66892;53.236;6.550;2023-06-01T09:06:41;102507.78;;;12.44;79.39
77725;BME280;66892;53.236;6.550;2023-06-01T09:09:08;102502.53;;;12.47;78.68
77725;BME280;66892;53.236;6.550;2023-06-01T09:11:38;102504.53;;;12.61;79.03
77725;BME280;66892;53.236;6.550;2023-06-01T09:14:19;102516.19;;;12.73;77.25
77725;BME280;66892;53.236;6.550;2023-06-01T09:16:46;102503.75;;;12.70;76.10
77725;BME280;66892;53.236;6.550;2023-06-01T09:19:12;102505.53;;;12.69;76.17
77725;BME280;66892;53.236;6.550;2023-06-01T09:21:38;102507.25;;;12.66;76.52
77725;BME280;66892;53.236;6.550;2023-06-01T09:24:21;102502.09;;;12.77;77.10
77725;BME280;66892;53.236;6.550;2023-06-01T09:26:48;102505.88;;;12.94;75.62
77725;BME280;66892;53.236;6.550;2023-06-01T09:29:14;102496.16;;;12.97;74.81
77725;BME280;66892;53.236;6.550;2023-06-01T09:31:41;102495.22;;;12.92;74.00
77725;BME280;66892;53.236;6.550;2023-06-01T09:34:09;102506.66;;;12.87;75.22
77725;BME280;66892;53.236;6.550;2023-06-01T09:36:37;102496.94;;;12.87;75.47
77725;BME280;66892;53.236;6.550;2023-06-01T09:39:04;102495.19;;;12.91;75.09
77725;BME280;66892;53.236;6.550;2023-06-01T09:41:49;102488.16;;;12.94;74.71
77725;BME280;66892;53.236;6.550;2023-06-01T09:44:23;102491.69;;;12.92;74.74
77725;BME280;66892;53.236;6.550;2023-06-01T09:46:51;102487.34;;;12.98;73.96
77725;BME280;66892;53.236;6.550;2023-06-01T09:49:21;102487.63;;;13.18;73.19
77725;BME280;66892;53.236;6.550;2023-06-01T09:51:48;102481.59;;;13.33;72.62
77725;BME280;66892;53.236;6.550;2023-06-01T09:54:22;102487.16;;;13.55;71.65
77725;BME280;66892;53.236;6.550;2023-06-01T09:56:49;102489.91;;;13.63;69.99
77725;BME280;66892;53.236;6.550;2023-06-01T09:59:15;102483.69;;;13.62;69.46
77725;BME280;66892;53.236;6.550;2023-06-01T10:01:43;102485.50;;;13.63;69.74
77725;BME280;66892;53.236;6.550;2023-06-01T10:04:14;102500.41;;;13.52;69.91
77725;BME280;66892;53.236;6.550;2023-06-01T10:06:44;102494.28;;;13.56;70.09
77725;BME280;66892;53.236;6.550;2023-06-01T10:09:11;102492.38;;;13.46;70.63
77725;BME280;66892;53.236;6.550;2023-06-01T10:11:41;102488.78;;;13.43;69.94
77725;BME280;66892;53.236;6.550;2023-06-01T10:14:09;102494.06;;;13.38;70.69
77725;BME280;66892;53.236;6.550;2023-06-01T10:16:36;102488.00;;;13.48;70.74
77725;BME280;66892;53.236;6.550;2023-06-01T10:19:02;102484.53;;;13.58;70.78
77725;BME280;66892;53.236;6.550;2023-06-01T10:21:28;102485.44;;;13.59;70.08
77725;BME280;66892;53.236;6.550;2023-06-01T10:23:54;102480.19;;;13.66;70.32
77725;BME280;66892;53.236;6.550;2023-06-01T10:26:21;102481.03;;;13.62;68.91
77725;BME280;66892;53.236;6.550;2023-06-01T10:28:50;102488.13;;;13.62;68.54
77725;BME280;66892;53.236;6.550;2023-06-01T10:31:34;102480.19;;;13.68;68.20
77725;BME280;66892;53.236;6.550;2023-06-01T10:34:04;102473.38;;;13.93;66.85
77725;BME280;66892;53.236;6.550;2023-06-01T10:39:34;102468.19;;;14.09;66.46
77725;BME280;66892;53.236;6.550;2023-06-01T10:42:35;102473.59;;;14.23;66.64
77725;BME280;66892;53.236;6.550;2023-06-01T10:45:01;102469.31;;;14.37;67.03
77725;BME280;66892;53.236;6.550;2023-06-01T10:47:46;102464.97;;;14.50;66.95
77725;BME280;66892;53.236;6.550;2023-06-01T10:50:15;102472.91;;;14.41;66.20
77725;BME280;66892;53.236;6.550;2023-06-01T10:52:42;102471.97;;;14.37;66.38
77725;BME280;66892;53.236;6.550;2023-06-01T10:55:22;102466.56;;;14.28;65.93
77725;BME280;66892;53.236;6.550;2023-06-01T10:57:48;102475.47;;;14.32;65.77
77725;BME280;66892;53.236;6.550;2023-06-01T11:00:16;102470.13;;;14.29;65.60
77725;BME280;66892;53.236;6.550;2023-06-01T11:02:46;102464.13;;;14.57;65.24
77725;BME280;66892;53.236;6.550;2023-06-01T11:05:33;102466.03;;;14.81;63.30
77725;BME280;66892;53.236;6.550;2023-06-01T11:07:59;102465.25;;;15.04;61.46
77725;BME280;66892;53.236;6.550;2023-06-01T11:10:54;102464.50;;;15.34;60.48
77725;BME280;66892;53.236;6.550;2023-06-01T11:13:22;102446.72;;;15.45;59.73
77725;BME280;66892;53.236;6.550;2023-06-01T11:16:26;102455.59;;;15.40;60.46
77725;BME280;66892;53.236;6.550;2023-06-01T11:18:55;102456.47;;;15.31;60.56
77725;BME280;66892;53.236;6.550;2023-06-01T11:21:25;102448.44;;;15.23;61.24
77725;BME280;66892;53.236;6.550;2023-06-01T11:23:52;102463.50;;;15.12;61.09
77725;BME280;66892;53.236;6.550;2023-06-01T11:26:22;102456.44;;;15.17;61.87
77725;BME280;66892;53.236;6.550;2023-06-01T11:28:51;102458.19;;;15.14;62.35
77725;BME280;66892;53.236;6.550;2023-06-01T11:31:19;102451.09;;;15.11;63.04
77725;BME280;66892;53.236;6.550;2023-06-01T11:33:49;102459.03;;;14.99;63.10
77725;BME280;66892;53.236;6.550;2023-06-01T11:36:17;102466.91;;;14.73;64.39
77725;BME280;66892;53.236;6.550;2023-06-01T11:38:43;102464.97;;;14.50;64.69
77725;BME280;66892;53.236;6.550;2023-06-01T11:41:09;102462.22;;;14.38;65.87
77725;BME280;66892;53.236;6.550;2023-06-01T11:43:35;102462.13;;;14.27;66.74
77725;BME280;66892;53.236;6.550;2023-06-01T11:46:02;102473.47;;;14.06;67.72
77725;BME280;66892;53.236;6.550;2023-06-01T11:48:28;102479.47;;;13.84;69.07
77725;BME280;66892;53.236;6.550;2023-06-01T11:50:55;102467.94;;;13.82;68.91
77725;BME280;66892;53.236;6.550;2023-06-01T11:53:23;102475.09;;;13.86;67.96
77725;BME280;66892;53.236;6.550;2023-06-01T11:55:50;102462.75;;;13.96;67.63
77725;BME280;66892;53.236;6.550;2023-06-01T11:58:20;102463.00;;;14.24;67.15
77725;BME280;66892;53.236;6.550;2023-06-01T12:00:48;102456.97;;;14.50;65.86
77725;BME280;66892;53.236;6.550;2023-06-01T12:03:14;102459.69;;;14.56;65.52
77725;BME280;66892;53.236;6.550;2023-06-01T12:05:40;102468.50;;;14.47;65.52
77725;BME280;66892;53.236;6.550;2023-06-01T12:08:14;102456.72;;;14.19;65.30
77725;BME280;66892;53.236;6.550;2023-06-01T12:10:43;102455.91;;;14.26;65.60
77725;BME280;66892;53.236;6.550;2023-06-01T12:13:10;102461.25;;;14.31;65.02
77725;BME280;66892;53.236;6.550;2023-06-01T12:15:37;102466.56;;;14.28;66.20
77725;BME280;66892;53.236;6.550;2023-06-01T12:18:03;102460.16;;;14.06;67.00
77725;BME280;66892;53.236;6.550;2023-06-01T12:20:31;102465.22;;;13.73;67.80
77725;BME280;66892;53.236;6.550;2023-06-01T12:22:57;102453.56;;;13.62;69.02
77725;BME280;66892;53.236;6.550;2023-06-01T12:25:24;102452.75;;;13.69;69.34
77725;BME280;66892;53.236;6.550;2023-06-01T12:28:02;102443.16;;;13.88;68.50
77725;BME280;66892;53.236;6.550;2023-06-01T12:30:28;102454.97;;;14.20;68.46
77725;BME280;66892;53.236;6.550;2023-06-01T12:32:54;102449.69;;;14.29;67.82
77725;BME280;66892;53.236;6.550;2023-06-01T12:35:20;102451.50;;;14.32;67.94
77725;BME280;66892;53.236;6.550;2023-06-01T12:38:02;102461.16;;;14.17;69.31
77725;BME280;66892;53.236;6.550;2023-06-01T12:40:29;102448.66;;;14.07;69.75
77725;BME280;66892;53.236;6.550;2023-06-01T12:42:55;102449.47;;;13.96;71.11
77725;BME280;66892;53.236;6.550;2023-06-01T12:45:22;102456.38;;;13.77;71.42
77725;BME280;66892;53.236;6.550;2023-06-01T12:47:48;102458.13;;;13.73;72.18
77725;BME280;66892;53.236;6.550;2023-06-01T12:50:15;102459.88;;;13.73;72.88
77725;BME280;66892;53.236;6.550;2023-06-01T12:52:42;102461.63;;;13.69;72.02
77725;BME280;66892;53.236;6.550;2023-06-01T12:55:08;102468.66;;;13.63;72.84
77725;BME280;66892;53.236;6.550;2023-06-01T12:57:35;102464.13;;;13.56;72.99